createdAt,value
2022-12-24T00:01:34.799Z,0.80
2022-12-24T00:04:02.875Z,1.00
2022-12-24T00:06:30.860Z,1.03
2022-12-24T00:09:00.205Z,1.27
2022-12-24T00:11:28.385Z,0.97
2022-12-24T00:13:56.444Z,1.00
2022-12-24T00:16:24.504Z,0.80
2022-12-24T00:18:52.662Z,1.00
2022-12-24T00:21:20.628Z,0.90
2022-12-24T00:23:48.539Z,0.90
2022-12-24T00:26:17.863Z,1.00
2022-12-24T00:28:45.863Z,1.10
2022-12-24T00:31:15.560Z,0.90
2022-12-24T00:33:44.012Z,1.00
2022-12-24T00:36:12.194Z,0.80
2022-12-24T00:38:40.277Z,1.00
2022-12-24T00:41:24.341Z,1.20
2022-12-24T00:43:55.559Z,1.00
2022-12-24T00:46:23.881Z,0.83
2022-12-24T00:48:52.226Z,1.20
2022-12-24T00:51:21.021Z,0.90
2022-12-24T00:53:49.777Z,0.90
2022-12-24T00:56:18.440Z,0.97
2022-12-24T00:58:46.724Z,0.97
2022-12-24T01:01:16.613Z,0.90
2022-12-24T01:03:45.108Z,1.57
2022-12-24T01:06:14.235Z,1.57
2022-12-24T01:08:42.693Z,1.37
2022-12-24T01:11:12.878Z,1.17
2022-12-24T01:13:41.070Z,0.90
2022-12-24T01:16:18.162Z,0.90
2022-12-24T01:18:46.788Z,1.13
2022-12-24T01:21:16.282Z,1.50
2022-12-24T01:23:44.693Z,1.00
2022-12-24T01:26:13.430Z,0.87
2022-12-24T01:28:41.980Z,0.80
2022-12-24T01:31:14.629Z,1.37
2022-12-24T01:33:44.770Z,0.90
2022-12-24T01:36:13.551Z,0.80
2022-12-24T01:38:42.155Z,0.70
2022-12-24T01:41:34.033Z,1.07
2022-12-24T01:44:17.656Z,1.10
2022-12-24T01:46:46.570Z,1.10
2022-12-24T01:49:18.176Z,0.90
2022-12-24T01:51:49.279Z,0.83
2022-12-24T01:54:21.402Z,0.83
2022-12-24T01:56:53.462Z,0.90
2022-12-24T01:59:22.473Z,0.90
2022-12-24T02:01:52.210Z,1.03
2022-12-24T02:04:29.392Z,1.00
2022-12-24T02:06:57.419Z,0.70
2022-12-24T02:09:25.834Z,0.80
2022-12-24T02:11:54.105Z,1.10
2022-12-24T02:14:22.689Z,0.90
2022-12-24T02:16:59.457Z,1.33
2022-12-24T02:20:08.137Z,0.80
2022-12-24T02:22:56.697Z,0.90
2022-12-24T02:25:51.391Z,1.00
2022-12-24T02:28:37.580Z,1.00
2022-12-24T02:31:12.459Z,0.90
2022-12-24T02:33:49.803Z,1.00
2022-12-24T02:36:24.027Z,0.80
2022-12-24T02:38:59.903Z,1.30
2022-12-24T02:41:54.267Z,1.10
2022-12-24T02:44:25.827Z,1.50
2022-12-24T02:46:56.071Z,1.40
2022-12-24T02:49:24.248Z,1.40
2022-12-24T02:51:52.275Z,1.40
2022-12-24T02:54:20.366Z,1.40
2022-12-24T02:57:07.357Z,1.30
2022-12-24T02:59:58.435Z,1.07
2022-12-24T03:02:37.820Z,1.10
2022-12-24T03:05:14.364Z,0.97
2022-12-24T03:07:48.754Z,1.20
2022-12-24T03:10:23.203Z,0.90
2022-12-24T03:12:55.189Z,1.40
2022-12-24T03:15:26.891Z,1.13
2022-12-24T03:18:00.028Z,1.20
2022-12-24T03:20:33.276Z,1.30
2022-12-24T03:23:05.230Z,1.23
2022-12-24T03:25:34.774Z,1.20
2022-12-24T03:28:05.743Z,1.10
2022-12-24T03:30:34.272Z,0.90
2022-12-24T03:33:03.525Z,1.40
2022-12-24T03:35:31.560Z,0.93
2022-12-24T03:37:59.446Z,1.00
2022-12-24T03:40:27.421Z,0.77
2022-12-24T03:42:55.313Z,0.80
2022-12-24T03:45:23.403Z,1.20
2022-12-24T03:47:51.404Z,0.80
2022-12-24T03:50:20.708Z,1.10
2022-12-24T03:52:48.688Z,0.93
2022-12-24T03:55:16.794Z,0.90
2022-12-24T03:57:44.784Z,0.83
2022-12-24T04:00:13.604Z,0.80
2022-12-24T04:02:42.130Z,0.90
2022-12-24T04:05:14.200Z,1.90
2022-12-24T04:07:43.622Z,0.90
2022-12-24T04:10:12.216Z,1.00
2022-12-24T04:12:40.354Z,0.80
2022-12-24T04:15:09.793Z,0.93
2022-12-24T04:17:38.141Z,0.80
2022-12-24T04:20:07.386Z,0.97
2022-12-24T04:22:35.344Z,1.07
2022-12-24T04:25:05.443Z,1.20
2022-12-24T04:27:33.423Z,1.10
2022-12-24T04:30:01.364Z,1.10
2022-12-24T04:32:29.788Z,0.90
2022-12-24T04:34:57.896Z,0.90
2022-12-24T04:37:25.895Z,0.90
2022-12-24T04:39:53.823Z,0.90
2022-12-24T04:42:23.265Z,1.03
2022-12-24T04:44:51.824Z,1.07
2022-12-24T04:47:19.795Z,1.03
2022-12-24T04:49:47.720Z,0.83
2022-12-24T04:52:15.708Z,0.90
2022-12-24T04:54:43.646Z,1.50
2022-12-24T04:57:11.661Z,1.30
2022-12-24T04:59:40.935Z,1.10
2022-12-24T05:02:09.133Z,0.97
2022-12-24T05:04:37.285Z,0.80
2022-12-24T05:07:05.879Z,1.27
2022-12-24T05:09:34.052Z,1.23
2022-12-24T05:12:03.321Z,1.10
2022-12-24T05:14:31.274Z,1.10
2022-12-24T05:17:00.705Z,1.00
2022-12-24T05:19:28.706Z,0.90
2022-12-24T05:22:10.574Z,1.03
2022-12-24T05:25:07.461Z,0.90
2022-12-24T05:27:35.432Z,1.10
2022-12-24T05:30:03.445Z,1.20
2022-12-24T05:32:32.775Z,0.80
2022-12-24T05:35:00.770Z,1.10
2022-12-24T05:37:28.673Z,1.10
2022-12-24T05:39:56.659Z,1.30
2022-12-24T05:42:24.597Z,1.50
2022-12-24T05:44:52.616Z,1.20
2022-12-24T05:47:21.461Z,1.73
2022-12-24T05:49:50.743Z,1.03
2022-12-24T05:52:18.696Z,1.00
2022-12-24T05:54:46.660Z,1.30
2022-12-24T05:57:14.591Z,1.40
2022-12-24T05:59:42.643Z,1.10
2022-12-24T06:02:10.723Z,1.80
2022-12-24T06:04:38.910Z,1.10
2022-12-24T06:07:08.240Z,1.40
2022-12-24T06:09:36.194Z,1.43
2022-12-24T06:12:04.228Z,1.90
2022-12-24T06:14:32.298Z,1.47
2022-12-24T06:17:00.259Z,1.30
2022-12-24T06:19:29.074Z,1.60
2022-12-24T06:21:57.098Z,2.03
2022-12-24T06:24:26.385Z,19.20
2022-12-24T06:26:54.328Z,5.80
2022-12-24T06:29:22.399Z,29.30
2022-12-24T06:31:50.608Z,42.23
2022-12-24T06:34:18.557Z,54.60
2022-12-24T06:36:46.598Z,40.50
2022-12-24T06:39:15.799Z,47.13
2022-12-24T06:41:45.195Z,35.30
2022-12-24T06:44:13.231Z,11.27
2022-12-24T06:46:41.241Z,4.80
2022-12-24T06:49:10.707Z,3.43
2022-12-24T06:51:42.781Z,2.10
2022-12-24T06:54:10.759Z,1.90
2022-12-24T06:56:38.808Z,2.30
2022-12-24T06:59:08.083Z,5.00
2022-12-24T07:01:36.111Z,4.57
2022-12-24T07:04:04.225Z,2.47
2022-12-24T07:06:32.476Z,2.20
2022-12-24T07:09:00.637Z,1.40
2022-12-24T07:11:29.093Z,1.97
2022-12-24T07:13:57.011Z,1.70
2022-12-24T07:16:26.656Z,2.07
2022-12-24T07:18:54.713Z,1.63
2022-12-24T07:21:23.054Z,1.70
2022-12-24T07:23:51.162Z,1.87
2022-12-24T07:26:19.077Z,2.00
2022-12-24T07:28:47.045Z,2.23
2022-12-24T07:31:15.178Z,2.33
2022-12-24T07:33:44.768Z,2.70
2022-12-24T07:36:19.611Z,2.67
2022-12-24T07:38:47.825Z,3.23
2022-12-24T07:41:15.758Z,3.50
2022-12-24T07:43:43.790Z,3.37
2022-12-24T07:46:11.830Z,3.20
2022-12-24T07:48:40.250Z,3.13
2022-12-24T07:51:09.574Z,2.17
2022-12-24T07:53:37.601Z,1.93
2022-12-24T07:56:12.387Z,1.97
2022-12-24T07:58:40.887Z,2.20
2022-12-24T08:01:09.360Z,1.80
2022-12-24T08:03:37.473Z,1.63
2022-12-24T08:06:05.868Z,2.13
2022-12-24T08:08:35.167Z,2.30
2022-12-24T08:11:06.788Z,1.90
2022-12-24T08:13:35.467Z,1.80
2022-12-24T08:16:03.511Z,2.10
2022-12-24T08:18:31.780Z,1.83
2022-12-24T08:21:00.031Z,2.30
2022-12-24T08:23:30.042Z,3.77
2022-12-24T08:25:59.292Z,3.03
2022-12-24T08:28:27.403Z,2.27
2022-12-24T08:30:55.379Z,2.17
2022-12-24T08:33:23.339Z,2.50
2022-12-24T08:35:52.328Z,2.10
2022-12-24T08:38:20.836Z,2.33
2022-12-24T08:40:50.248Z,2.70
2022-12-24T08:43:20.747Z,2.30
2022-12-24T08:45:50.220Z,2.57
2022-12-24T08:48:18.942Z,2.80
2022-12-24T08:50:47.337Z,3.27
2022-12-24T08:53:15.571Z,2.30
2022-12-24T08:55:43.508Z,2.60
2022-12-24T08:58:11.440Z,3.30
2022-12-24T09:00:40.912Z,3.43
2022-12-24T09:03:08.981Z,4.27
2022-12-24T09:05:41.172Z,5.60
2022-12-24T09:08:09.121Z,3.27
2022-12-24T09:10:37.054Z,2.80
2022-12-24T09:13:05.023Z,3.83
2022-12-24T09:15:33.318Z,2.90
2022-12-24T09:18:02.944Z,2.83
2022-12-24T09:20:31.105Z,2.80
2022-12-24T09:22:59.043Z,3.73
2022-12-24T09:25:27.068Z,3.10
2022-12-24T09:27:55.233Z,2.73
2022-12-24T09:30:23.314Z,4.37
2022-12-24T09:32:52.305Z,3.20
2022-12-24T09:35:21.685Z,4.30
2022-12-24T09:38:02.661Z,4.60
2022-12-24T09:40:35.017Z,4.40
2022-12-24T09:43:06.611Z,4.23
2022-12-24T09:45:39.429Z,3.53
2022-12-24T09:48:15.309Z,4.17
2022-12-24T09:50:51.200Z,3.50
2022-12-24T09:53:24.868Z,3.17
2022-12-24T09:55:57.392Z,3.47
2022-12-24T09:58:29.416Z,7.37
2022-12-24T10:00:58.155Z,4.00
2022-12-24T10:03:26.282Z,4.27
2022-12-24T10:06:07.557Z,6.43
2022-12-24T10:08:46.078Z,5.43
2022-12-24T10:11:20.456Z,14.30
2022-12-24T10:14:02.885Z,15.67
2022-12-24T10:16:40.980Z,16.80
2022-12-24T10:19:17.261Z,9.30
2022-12-24T10:21:58.236Z,12.67
2022-12-24T10:24:32.359Z,9.73
2022-12-24T10:27:04.127Z,5.50
2022-12-24T10:29:35.836Z,4.80
2022-12-24T10:32:17.526Z,23.77
2022-12-24T10:34:50.120Z,23.77
2022-12-24T10:37:24.231Z,57.37
2022-12-24T10:39:52.492Z,4.73
2022-12-24T10:42:22.918Z,3.07
2022-12-24T10:44:53.283Z,3.00
2022-12-24T10:47:23.128Z,2.50
2022-12-24T10:49:55.301Z,2.70
2022-12-24T10:52:30.136Z,2.50
2022-12-24T10:55:11.109Z,2.10
2022-12-24T10:57:40.376Z,2.07
2022-12-24T11:00:19.449Z,2.10
2022-12-24T11:02:49.383Z,3.47
2022-12-24T11:05:31.946Z,3.00
2022-12-24T11:08:06.636Z,3.43
2022-12-24T11:10:37.792Z,3.03
2022-12-24T11:13:36.155Z,3.23
2022-12-24T11:16:06.731Z,4.93
2022-12-24T11:18:37.676Z,3.50
2022-12-24T11:21:06.893Z,3.10
2022-12-24T11:23:36.237Z,3.57
2022-12-24T11:26:04.457Z,3.60
2022-12-24T11:28:33.736Z,3.27
2022-12-24T11:31:07.078Z,3.40
2022-12-24T11:33:48.001Z,3.37
2022-12-24T11:36:18.048Z,3.73
2022-12-24T11:38:54.237Z,3.10
2022-12-24T11:41:23.544Z,3.00
2022-12-24T11:43:58.446Z,3.57
2022-12-24T11:46:41.492Z,3.07
2022-12-24T11:49:22.520Z,3.13
2022-12-24T11:52:25.865Z,2.40
2022-12-24T11:55:18.304Z,3.03
2022-12-24T11:57:55.277Z,2.93
2022-12-24T12:00:23.238Z,3.03
2022-12-24T12:02:53.398Z,3.07
2022-12-24T12:05:24.766Z,3.40
2022-12-24T12:07:56.095Z,3.40
2022-12-24T12:10:28.722Z,3.00
2022-12-24T12:13:01.864Z,2.80
2022-12-24T12:15:34.341Z,3.20
2022-12-24T12:18:08.244Z,3.40
2022-12-24T12:20:40.584Z,2.80
2022-12-24T12:23:15.748Z,5.03
2022-12-24T12:25:51.843Z,3.07
2022-12-24T12:28:23.687Z,4.10
2022-12-24T12:31:02.166Z,3.20
2022-12-24T12:33:34.708Z,3.37
2022-12-24T12:36:04.736Z,3.00
2022-12-24T12:38:32.986Z,3.07
2022-12-24T12:41:24.860Z,2.67
2022-12-24T12:44:22.482Z,1.80
2022-12-24T12:47:11.134Z,3.37
2022-12-24T12:49:47.237Z,2.13
2022-12-24T12:52:23.303Z,2.10
2022-12-24T12:55:05.384Z,2.23
2022-12-24T12:57:38.708Z,2.13
2022-12-24T13:00:09.761Z,2.23
2022-12-24T13:03:10.801Z,3.30
2022-12-24T13:06:02.698Z,2.73
2022-12-24T13:08:53.935Z,2.53
2022-12-24T13:11:39.824Z,2.13
2022-12-24T13:14:40.655Z,2.07
2022-12-24T13:17:37.802Z,2.40
2022-12-24T13:20:22.710Z,2.13
2022-12-24T13:22:55.253Z,3.33
2022-12-24T13:25:29.216Z,1.90
2022-12-24T13:27:57.180Z,1.63
2022-12-24T13:30:39.844Z,2.57
2022-12-24T13:33:11.449Z,2.27
2022-12-24T13:35:55.677Z,2.30
2022-12-24T13:38:39.964Z,3.03
2022-12-24T13:41:53.885Z,2.40
2022-12-24T13:44:33.678Z,2.50
2022-12-24T13:47:31.919Z,2.80
2022-12-24T13:50:22.064Z,3.03
2022-12-24T13:52:53.671Z,2.83
2022-12-24T13:55:22.465Z,2.80
2022-12-24T13:57:59.882Z,2.17
2022-12-24T14:00:33.498Z,2.90
2022-12-24T14:03:08.172Z,2.30
2022-12-24T14:05:40.993Z,1.73
2022-12-24T14:08:13.562Z,1.93
2022-12-24T14:10:45.981Z,2.10
2022-12-24T14:13:47.542Z,2.27
2022-12-24T14:16:18.603Z,2.30
2022-12-24T14:18:51.671Z,2.00
2022-12-24T14:21:24.344Z,2.20
2022-12-24T14:23:55.655Z,1.97
2022-12-24T14:26:25.413Z,2.40
2022-12-24T14:28:57.193Z,2.30
2022-12-24T14:31:25.686Z,2.90
2022-12-24T14:34:07.020Z,2.60
2022-12-24T14:36:36.299Z,2.27
2022-12-24T14:39:06.725Z,2.23
2022-12-24T14:41:45.044Z,1.73
2022-12-24T14:44:24.523Z,2.10
2022-12-24T14:46:57.996Z,2.20
2022-12-24T14:49:42.464Z,2.10
2022-12-24T14:52:54.006Z,2.50
2022-12-24T14:55:31.977Z,1.90
2022-12-24T14:58:24.916Z,2.30
2022-12-24T15:00:55.107Z,2.30
2022-12-24T15:03:25.169Z,5.33
2022-12-24T15:05:58.314Z,2.37
2022-12-24T15:08:33.161Z,2.50
2022-12-24T15:11:04.897Z,4.10
2022-12-24T15:13:38.679Z,5.23
2022-12-24T15:16:10.883Z,4.27
2022-12-24T15:18:44.582Z,2.87
2022-12-24T15:21:20.904Z,1.90
2022-12-24T15:23:50.846Z,3.30
2022-12-24T15:26:25.924Z,2.50
2022-12-24T15:29:02.355Z,2.90
2022-12-24T15:31:32.315Z,6.60
2022-12-24T15:34:01.043Z,5.83
2022-12-24T15:36:35.497Z,2.40
2022-12-24T15:39:06.899Z,3.30
2022-12-24T15:41:59.691Z,1.60
2022-12-24T15:44:28.535Z,1.67
2022-12-24T15:47:00.803Z,2.00
2022-12-24T15:49:29.957Z,1.83
2022-12-24T15:52:06.591Z,2.00
2022-12-24T15:54:35.220Z,2.00
2022-12-24T15:57:14.241Z,1.67
2022-12-24T15:59:42.634Z,1.90
2022-12-24T16:02:33.763Z,2.70
2022-12-24T16:05:31.290Z,11.07
2022-12-24T16:08:09.688Z,7.70
2022-12-24T16:10:40.853Z,9.50
2022-12-24T16:13:15.711Z,27.30
2022-12-24T16:15:48.192Z,21.23
2022-12-24T16:18:24.761Z,32.90
2022-12-24T16:20:54.561Z,22.77
2022-12-24T16:23:26.443Z,9.13
2022-12-24T16:25:54.423Z,4.10
2022-12-24T16:28:23.324Z,3.30
2022-12-24T16:30:51.782Z,3.20
2022-12-24T16:33:21.553Z,3.90
2022-12-24T16:35:49.682Z,2.73
2022-12-24T16:38:17.786Z,2.30
2022-12-24T16:40:47.140Z,2.30
2022-12-24T16:43:33.285Z,2.00
2022-12-24T16:46:02.902Z,1.80
2022-12-24T16:48:31.355Z,3.20
2022-12-24T16:50:59.381Z,2.10
2022-12-24T16:53:27.423Z,1.40
2022-12-24T16:55:56.678Z,1.80
2022-12-24T16:58:24.759Z,1.83
2022-12-24T17:00:59.363Z,1.70
2022-12-24T17:03:29.233Z,1.83
2022-12-24T17:05:57.407Z,1.67
2022-12-24T17:08:25.316Z,1.73
2022-12-24T17:10:53.480Z,2.20
2022-12-24T17:13:23.073Z,1.70
2022-12-24T17:15:51.404Z,2.33
2022-12-24T17:18:19.390Z,1.90
2022-12-24T17:20:57.336Z,1.80
2022-12-24T17:23:25.475Z,2.00
2022-12-24T17:25:53.403Z,1.93
2022-12-24T17:28:22.717Z,2.27
2022-12-24T17:30:50.728Z,2.17
2022-12-24T17:33:18.799Z,1.70
2022-12-24T17:35:48.406Z,2.00
2022-12-24T17:38:16.334Z,1.70
2022-12-24T17:40:44.391Z,2.50
2022-12-24T17:43:12.388Z,2.60
2022-12-24T17:45:42.934Z,2.10
2022-12-24T17:48:11.678Z,2.97
2022-12-24T17:50:40.623Z,3.00
2022-12-24T17:53:08.992Z,3.67
2022-12-24T17:55:40.965Z,1.80
2022-12-24T17:58:08.947Z,1.87
2022-12-24T18:00:36.982Z,2.27
2022-12-24T18:03:06.423Z,2.00
2022-12-24T18:05:36.042Z,2.27
2022-12-24T18:08:04.333Z,1.70
2022-12-24T18:10:32.230Z,3.20
2022-12-24T18:13:00.244Z,3.50
2022-12-24T18:15:28.408Z,5.07
2022-12-24T18:17:57.350Z,3.73
2022-12-24T18:20:26.924Z,2.37
2022-12-24T18:22:54.860Z,2.87
2022-12-24T18:25:23.010Z,3.43
2022-12-24T18:27:51.031Z,3.80
2022-12-24T18:30:24.349Z,2.03
2022-12-24T18:32:55.689Z,1.87
2022-12-24T18:35:24.843Z,2.27
2022-12-24T18:37:54.329Z,2.97
2022-12-24T18:40:22.394Z,2.57
2022-12-24T18:42:50.312Z,4.03
2022-12-24T18:45:18.551Z,2.33
2022-12-24T18:47:46.494Z,2.60
2022-12-24T18:50:14.440Z,2.73
2022-12-24T18:52:42.514Z,3.57
2022-12-24T18:55:12.521Z,3.50
2022-12-24T18:57:40.858Z,2.80
2022-12-24T19:00:10.010Z,2.80
2022-12-24T19:02:38.296Z,3.20
2022-12-24T19:05:07.274Z,3.20
2022-12-24T19:07:35.305Z,2.77
2022-12-24T19:10:27.165Z,3.13
2022-12-24T19:12:58.494Z,3.00
2022-12-24T19:15:30.792Z,3.50
2022-12-24T19:18:03.511Z,3.40
2022-12-24T19:20:31.502Z,3.47
2022-12-24T19:22:59.406Z,4.13
2022-12-24T19:25:53.004Z,3.90
2022-12-24T19:28:25.844Z,3.40
2022-12-24T19:30:54.180Z,3.33
2022-12-24T19:33:22.092Z,2.90
2022-12-24T19:35:51.207Z,3.30
2022-12-24T19:38:19.235Z,2.60
2022-12-24T19:40:47.143Z,3.20
2022-12-24T19:43:15.112Z,2.77
2022-12-24T19:45:44.635Z,2.60
2022-12-24T19:48:12.593Z,2.57
2022-12-24T19:50:40.882Z,2.90
2022-12-24T19:53:08.866Z,3.30
2022-12-24T19:55:36.778Z,2.67
2022-12-24T19:58:04.833Z,3.10
2022-12-24T20:00:33.003Z,2.83
2022-12-24T20:03:02.806Z,3.20
2022-12-24T20:05:30.907Z,3.10
2022-12-24T20:07:58.828Z,3.50
2022-12-24T20:10:26.864Z,3.03
2022-12-24T20:12:54.757Z,2.83
2022-12-24T20:15:22.845Z,3.00
2022-12-24T20:17:52.186Z,2.40
2022-12-24T20:20:21.497Z,3.10
2022-12-24T20:22:49.517Z,3.93
2022-12-24T20:25:17.700Z,3.37
2022-12-24T20:27:45.625Z,2.63
2022-12-24T20:30:14.330Z,2.80
2022-12-24T20:32:42.351Z,2.50
2022-12-24T20:35:10.615Z,2.90
2022-12-24T20:37:45.653Z,2.80
2022-12-24T20:40:14.299Z,3.10
2022-12-24T20:42:43.149Z,2.90
2022-12-24T20:45:11.223Z,2.50
2022-12-24T20:47:39.269Z,2.93
2022-12-24T20:50:08.510Z,3.00
2022-12-24T20:52:36.535Z,3.47
2022-12-24T20:55:06.587Z,3.70
2022-12-24T20:57:36.664Z,3.83
2022-12-24T21:00:06.938Z,4.90
2022-12-24T21:02:35.426Z,4.27
2022-12-24T21:05:03.854Z,3.77
2022-12-24T21:07:31.923Z,4.57
2022-12-24T21:09:59.841Z,4.50
2022-12-24T21:12:46.645Z,3.70
2022-12-24T21:15:14.608Z,4.73
2022-12-24T21:17:42.674Z,4.70
2022-12-24T21:20:11.917Z,4.40
2022-12-24T21:22:40.319Z,5.40
2022-12-24T21:25:09.402Z,5.77
2022-12-24T21:27:38.945Z,6.30
2022-12-24T21:30:09.925Z,5.63
2022-12-24T21:32:38.231Z,6.23
2022-12-24T21:35:07.160Z,6.33
2022-12-24T21:37:35.323Z,6.17
2022-12-24T21:40:03.651Z,4.90
2022-12-24T21:42:33.217Z,5.63
2022-12-24T21:45:03.417Z,6.40
2022-12-24T21:47:31.660Z,5.20
2022-12-24T21:50:17.013Z,5.70
2022-12-24T21:52:45.172Z,4.90
2022-12-24T21:55:13.896Z,5.00
2022-12-24T21:57:54.289Z,5.30
2022-12-24T22:00:24.362Z,5.63
2022-12-24T22:02:53.595Z,5.70
2022-12-24T22:05:22.115Z,6.40
2022-12-24T22:08:07.345Z,7.20
2022-12-24T22:10:53.239Z,7.57
2022-12-24T22:13:22.057Z,6.73
2022-12-24T22:15:52.896Z,7.20
2022-12-24T22:18:23.429Z,6.80
2022-12-24T22:20:52.128Z,6.00
2022-12-24T22:23:20.503Z,5.70
2022-12-24T22:25:48.499Z,5.80
2022-12-24T22:28:16.457Z,5.47
2022-12-24T22:30:44.886Z,5.53
2022-12-24T22:33:14.220Z,5.63
2022-12-24T22:35:42.637Z,5.80
2022-12-24T22:38:11.663Z,5.47
2022-12-24T22:40:41.295Z,5.60
2022-12-24T22:43:09.222Z,7.07
2022-12-24T22:45:37.255Z,5.97
2022-12-24T22:48:05.543Z,6.13
2022-12-24T22:50:34.937Z,7.30
2022-12-24T22:53:03.074Z,8.33
2022-12-24T22:55:31.020Z,8.57
2022-12-24T22:57:59.093Z,8.77
2022-12-24T23:00:43.359Z,8.03
2022-12-24T23:03:12.243Z,7.90
2022-12-24T23:05:42.038Z,7.20
2022-12-24T23:08:11.051Z,7.90
2022-12-24T23:10:40.296Z,7.10
2022-12-24T23:13:25.958Z,7.90
2022-12-24T23:15:53.963Z,7.20
2022-12-24T23:18:21.964Z,6.97
2022-12-24T23:20:51.271Z,6.40
2022-12-24T23:23:19.293Z,6.50
2022-12-24T23:25:47.396Z,6.23
2022-12-24T23:28:15.444Z,5.83
2022-12-24T23:30:43.370Z,6.60
2022-12-24T23:33:11.371Z,6.43
2022-12-24T23:35:39.499Z,6.10
2022-12-24T23:38:09.200Z,5.33
2022-12-24T23:40:37.320Z,5.60
2022-12-24T23:43:05.262Z,4.67
2022-12-24T23:45:33.223Z,5.13
2022-12-24T23:48:01.119Z,4.40
2022-12-24T23:50:29.101Z,5.53
2022-12-24T23:52:57.071Z,4.27
2022-12-24T23:55:26.342Z,5.03
2022-12-24T23:57:54.369Z,4.60
